Time;durP1;ratioP1;P1;durP2;ratioP2;P2;SDS_P1;SDS_P2;PMS_P1;PMS_P2;Temp;Humidity;BMP_temperature;BMP_pressure;BME280_temperature;BME280_humidity;BME280_pressure;Samples;Min_cycle;Max_cycle;Signal;HPM_P1;HPM_P2
2022/07/18 00:00:29;;;;;;;4.55;1.42;;;;;;;17.58;44.62;101042.19;5095144;28;20404;-75
2022/07/18 00:02:58;;;;;;;3.58;1.58;;;;;;;17.51;44.77;101052.59;5095334;28;20108;-75
2022/07/18 00:05:27;;;;;;;6.30;1.77;;;;;;;17.61;44.43;101053.59;5094606;28;20082;-74
2022/07/18 00:07:55;;;;;;;3.47;1.35;;;;;;;17.64;44.42;101056.03;5094954;28;20185;-76
2022/07/18 00:10:24;;;;;;;3.72;1.30;;;;;;;17.64;44.32;101056.03;5094656;28;20048;-78
2022/07/18 00:12:52;;;;;;;4.93;1.70;;;;;;;17.66;44.03;101058.63;5095144;28;20066;-78
2022/07/18 00:15:20;;;;;;;6.00;1.58;;;;;;;17.51;44.26;101070.59;5094474;28;20068;-75
2022/07/18 00:17:49;;;;;;;4.18;1.48;;;;;;;17.34;44.56;101063.78;5076324;28;20068;-75
2022/07/18 00:20:18;;;;;;;3.80;1.45;;;;;;;17.43;44.39;101061.25;5094455;28;20044;-73
2022/07/18 00:22:47;;;;;;;3.30;1.40;;;;;;;17.42;44.47;101069.47;5094826;28;20044;-74
2022/07/18 00:25:15;;;;;;;4.25;1.35;;;;;;;17.31;44.46;101067.59;5094009;28;20073;-74
2022/07/18 00:27:48;;;;;;;4.00;1.50;;;;;;;17.28;44.67;101072.34;5094875;28;20044;-72
2022/07/18 00:30:16;;;;;;;6.45;1.40;;;;;;;17.14;45.01;101068.84;5094399;28;20284;-73
2022/07/18 00:32:44;;;;;;;4.82;1.58;;;;;;;17.14;44.99;101076.06;5094467;28;20118;-72
2022/07/18 00:35:13;;;;;;;3.58;1.67;;;;;;;17.17;44.95;101071.31;5094151;28;20114;-73
2022/07/18 00:37:42;;;;;;;3.60;1.42;;;;;;;17.20;44.92;101063.97;5094544;28;20044;-73
2022/07/18 00:40:11;;;;;;;3.65;1.70;;;;;;;17.15;44.81;101067.88;5076113;28;20101;-73
2022/07/18 00:42:39;;;;;;;5.35;1.60;;;;;;;17.12;45.02;101070.81;5094350;28;20064;-74
2022/07/18 00:45:09;;;;;;;3.42;1.30;;;;;;;17.08;45.37;101065.72;5093482;28;20040;-74
2022/07/18 00:47:37;;;;;;;4.03;1.50;;;;;;;17.05;45.20;101066.84;5076397;28;20061;-74
2022/07/18 00:50:07;;;;;;;3.47;1.65;;;;;;;17.12;44.80;101065.41;5094019;28;20040;-81
2022/07/18 00:52:36;;;;;;;4.93;1.45;;;;;;;17.12;44.74;101062.72;5094145;28;20064;-74
2022/07/18 00:55:07;;;;;;;4.07;1.48;;;;;;;16.95;45.61;101065.78;5094170;28;20036;-74
2022/07/18 00:57:35;;;;;;;3.95;1.50;;;;;;;17.06;45.23;101063.16;5094409;28;20043;-75
2022/07/18 01:02:50;;;;;;;5.72;1.55;;;;;;;16.81;46.78;101066.81;5076099;28;20048;-75
2022/07/18 01:05:19;;;;;;;3.15;1.40;;;;;;;16.72;47.39;101072.03;5093608;28;20139;-74
2022/07/18 01:07:47;;;;;;;2.85;1.40;;;;;;;16.74;47.61;101075.47;5093831;28;20089;-73
2022/07/18 01:10:17;;;;;;;4.07;1.45;;;;;;;16.81;47.17;101071.34;5093384;28;20055;-74
2022/07/18 01:12:46;;;;;;;2.95;1.45;;;;;;;16.84;47.39;101079.19;5093809;28;20138;-75
2022/07/18 01:15:14;;;;;;;4.85;1.30;;;;;;;16.93;46.53;101073.13;5093780;28;20052;-74
2022/07/18 01:17:43;;;;;;;4.38;1.60;;;;;;;17.02;46.39;101080.53;5093656;28;20076;-74
2022/07/18 01:20:13;;;;;;;3.55;1.27;;;;;;;17.06;45.87;101073.94;5093537;28;20532;-73
2022/07/18 01:22:42;;;;;;;3.38;1.40;;;;;;;17.31;45.16;101074.81;5093658;28;20413;-74
2022/07/18 01:25:12;;;;;;;3.00;1.40;;;;;;;17.19;45.60;101068.53;5093330;28;20063;-74
2022/07/18 01:27:41;;;;;;;3.38;1.48;;;;;;;17.17;45.90;101068.59;5093460;28;20040;-76
2022/07/18 01:30:10;;;;;;;3.25;1.52;;;;;;;16.88;46.66;101068.06;5093587;28;20454;-75
2022/07/18 01:32:39;;;;;;;4.22;1.60;;;;;;;16.91;46.91;101075.09;5075734;28;20055;-75
2022/07/18 01:35:08;;;;;;;3.20;1.30;;;;;;;16.95;47.00;101068.50;5093689;28;20040;-74
2022/07/18 01:37:36;;;;;;;4.57;1.50;;;;;;;16.76;47.70;101070.81;5093491;28;20436;-73
2022/07/18 01:40:10;;;;;;;5.93;1.50;;;;;;;16.53;48.79;101065.25;5093404;28;20051;-72
2022/07/18 01:42:38;;;;;;;;;;;;;;;16.66;48.34;101069.72;5094020;28;20439;-73
2022/07/18 01:45:07;;;;;;;2.40;1.25;;;;;;;16.68;48.55;101074.06;5093492;28;20022;-73
2022/07/18 01:47:35;;;;;;;4.38;1.40;;;;;;;16.57;49.16;101066.72;5093228;28;20040;-73
2022/07/18 01:50:05;;;;;;;3.47;1.45;;;;;;;16.64;49.33;101077.06;5093387;28;20047;-73
2022/07/18 01:52:34;;;;;;;4.15;1.60;;;;;;;16.68;49.55;101071.38;5074917;28;20048;-74
2022/07/18 01:55:03;;;;;;;2.83;1.27;;;;;;;16.56;49.85;101065.00;5093369;28;20488;-73
2022/07/18 01:57:33;;;;;;;3.60;1.60;;;;;;;16.52;50.44;101071.59;5091937;28;20040;-74
2022/07/18 02:00:02;;;;;;;2.95;1.42;;;;;;;16.55;51.06;101065.97;5075182;28;20078;-74
2022/07/18 02:02:30;;;;;;;3.47;1.35;;;;;;;16.48;51.14;101072.78;5092818;28;20055;-74
2022/07/18 02:05:02;;;;;;;3.38;1.50;;;;;;;16.37;51.79;101070.00;5092998;28;20404;-74
2022/07/18 02:07:33;;;;;;;2.90;1.40;;;;;;;16.31;52.13;101070.44;5092852;28;20040;-74
2022/07/18 02:10:03;;;;;;;5.35;1.42;;;;;;;16.23;52.32;101065.59;5093253;28;20036;-75
2022/07/18 02:12:33;;;;;;;4.93;1.70;;;;;;;16.31;51.79;101067.75;5093038;28;20068;-73
2022/07/18 02:15:01;;;;;;;3.58;1.50;;;;;;;16.47;51.79;101076.44;5093214;28;20141;-75
2022/07/18 02:17:31;;;;;;;4.82;1.48;;;;;;;16.49;51.98;101076.31;5092648;28;20050;-74
2022/07/18 02:19:59;;;;;;;4.05;1.23;;;;;;;16.80;50.62;101078.56;5092973;28;20382;-75
2022/07/18 02:22:27;;;;;;;4.13;1.40;;;;;;;16.62;51.41;101087.97;5092987;28;20044;-75
2022/07/18 02:24:56;;;;;;;4.60;1.30;;;;;;;16.55;52.13;101082.16;5092772;28;20489;-75
2022/07/18 02:27:24;;;;;;;5.72;1.50;;;;;;;16.59;51.67;101080.94;5092683;28;20040;-75
2022/07/18 02:29:53;;;;;;;3.53;1.27;;;;;;;16.46;51.91;101087.31;5092772;28;20047;-75
2022/07/18 02:32:23;;;;;;;3.95;1.63;;;;;;;16.38;52.61;101085.19;5092627;28;20050;-75
2022/07/18 02:34:51;;;;;;;4.53;1.50;;;;;;;16.41;52.51;101082.28;5092983;28;20044;-75
2022/07/18 02:37:19;;;;;;;5.35;1.42;;;;;;;16.33;52.87;101087.34;5092587;28;20081;-78
2022/07/18 02:39:47;;;;;;;3.40;1.55;;;;;;;16.32;52.86;101088.31;5092870;28;20060;-78
2022/07/18 02:42:15;;;;;;;5.25;1.60;;;;;;;16.69;51.91;101086.56;5092580;28;20036;-75
2022/07/18 02:44:45;;;;;;;2.45;1.35;;;;;;;16.52;52.93;101087.75;5092705;28;20410;-75
2022/07/18 02:47:15;;;;;;;5.20;1.60;;;;;;;16.43;52.55;101090.25;5092313;28;20082;-76
2022/07/18 02:49:43;;;;;;;4.72;1.52;;;;;;;16.43;52.60;101090.25;5092845;28;20050;-75
2022/07/18 02:52:11;;;;;;;3.58;1.35;;;;;;;16.45;52.50;101093.69;5092893;28;20063;-74
2022/07/18 02:54:40;;;;;;;4.00;1.60;;;;;;;16.47;52.57;101092.59;5092753;28;20059;-74
2022/07/18 02:57:08;;;;;;;4.03;1.80;;;;;;;16.40;53.46;101093.13;5074379;28;20493;-74
2022/07/18 02:59:36;;;;;;;2.85;1.50;;;;;;;16.66;52.08;101091.28;5092347;28;20058;-76
2022/07/18 03:02:04;;;;;;;4.50;1.70;;;;;;;16.51;52.41;101094.13;5092485;28;20400;-77
2022/07/18 03:04:34;;;;;;;5.68;1.67;;;;;;;16.67;51.65;101087.59;5092473;28;20562;-78
2022/07/18 03:07:02;;;;;;;3.53;1.48;;;;;;;16.54;51.89;101087.66;5074240;28;20051;-76
2022/07/18 03:09:30;;;;;;;4.03;1.60;;;;;;;16.44;52.38;101087.44;5076411;28;20055;-75
2022/07/18 03:11:58;;;;;;;3.50;1.70;;;;;;;16.56;52.08;101094.63;5096305;28;20048;-76
2022/07/18 03:14:27;;;;;;;5.50;1.60;;;;;;;16.57;51.96;101104.44;5095802;28;20048;-76
2022/07/18 03:16:55;;;;;;;3.75;1.40;;;;;;;16.63;51.66;101094.22;5096062;28;20109;-76
2022/07/18 03:19:23;;;;;;;2.92;1.35;;;;;;;16.76;51.14;101100.44;5077382;28;20052;-76
2022/07/18 03:21:52;;;;;;;3.80;1.73;;;;;;;16.65;51.66;101100.34;5095916;28;20123;-76
2022/07/18 03:24:21;;;;;;;6.10;2.60;;;;;;;16.80;50.82;101105.53;5077496;28;20072;-76
2022/07/18 03:26:49;;;;;;;3.20;1.70;;;;;;;16.73;51.69;101106.94;5077443;28;20078;-76
2022/07/18 03:29:17;;;;;;;5.90;1.65;;;;;;;16.73;51.35;101106.94;5095677;28;20040;-76
2022/07/18 03:31:45;;;;;;;4.50;1.60;;;;;;;16.72;51.17;101101.66;5096176;28;20047;-76
2022/07/18 03:34:14;;;;;;;3.65;1.55;;;;;;;16.77;51.39;101104.88;5095816;28;20099;-76
2022/07/18 03:36:42;;;;;;;5.72;1.75;;;;;;;16.76;51.63;101108.53;5095564;28;20165;-76
2022/07/18 03:39:12;;;;;;;6.05;1.80;;;;;;;16.62;52.12;101111.34;5095548;28;20048;-76
2022/07/18 03:41:40;;;;;;;3.72;1.70;;;;;;;16.99;51.49;101105.03;5095644;28;20412;-76
2022/07/18 03:44:09;;;;;;;4.53;1.80;;;;;;;17.24;50.44;101109.47;5095578;28;20043;-77
2022/07/18 03:46:37;;;;;;;4.05;1.58;;;;;;;17.08;51.06;101101.66;5095426;28;20066;-78
2022/07/18 03:49:05;;;;;;;3.15;1.50;;;;;;;17.59;50.06;101103.25;5095558;28;20068;-79
2022/07/18 03:51:33;;;;;;;4.32;1.83;;;;;;;18.39;48.01;101100.63;5095257;28;20055;-79
2022/07/18 03:54:01;;;;;;;5.43;1.63;;;;;;;19.00;46.94;101103.81;5095626;28;20044;-77
2022/07/18 03:56:31;;;;;;;4.13;1.70;;;;;;;19.97;44.40;101101.00;5095149;28;20040;-77
2022/07/18 03:58:59;;;;;;;7.50;2.30;;;;;;;20.54;42.74;101099.66;5095434;28;20082;-77
2022/07/18 04:01:30;;;;;;;8.57;1.80;;;;;;;20.73;42.16;101106.16;5094983;28;20048;-77
2022/07/18 04:03:59;;;;;;;4.82;1.85;;;;;;;20.57;42.69;101104.81;5095117;28;20485;-78
2022/07/18 04:06:27;;;;;;;6.30;1.90;;;;;;;20.74;42.27;101107.84;5095026;28;20048;-78
2022/07/18 04:08:55;;;;;;;6.00;1.98;;;;;;;21.81;39.99;101114.34;5094895;28;20123;-78
2022/07/18 04:11:24;;;;;;;8.07;2.10;;;;;;;22.14;39.34;101103.03;5094716;28;20044;-78
2022/07/18 04:13:54;;;;;;;5.50;2.10;;;;;;;22.25;38.78;101108.28;5094925;28;20374;-78
2022/07/18 04:16:23;;;;;;;3.90;1.60;;;;;;;21.49;40.37;101118.19;5094561;28;20073;-78
2022/07/18 04:18:51;;;;;;;5.43;1.70;;;;;;;22.14;38.79;101116.63;5076625;28;20126;-77
2022/07/18 04:21:20;;;;;;;5.93;1.67;;;;;;;22.27;38.36;101103.56;5093780;28;20068;-76
2022/07/18 04:23:48;;;;;;;4.25;1.77;;;;;;;22.69;37.82;101108.59;5094659;28;20048;-75
2022/07/18 04:26:16;;;;;;;5.97;1.90;;;;;;;22.19;38.74;101106.16;5094522;28;20501;-74
2022/07/18 04:28:44;;;;;;;5.30;2.05;;;;;;;23.05;37.11;101119.59;5094582;28;20044;-74
2022/07/18 04:31:14;;;;;;;4.13;1.98;;;;;;;23.70;35.71;101113.00;5087210;28;20052;-74
2022/07/18 04:33:42;;;;;;;7.95;2.20;;;;;;;24.02;35.30;101113.41;5076031;28;20052;-73
2022/07/18 04:36:10;;;;;;;5.97;2.20;;;;;;;24.40;34.96;101110.31;5074801;28;20044;-73
2022/07/18 04:38:39;;;;;;;5.10;1.90;;;;;;;24.94;33.69;101110.94;5073828;28;20128;-73
2022/07/18 04:41:07;;;;;;;4.30;1.90;;;;;;;24.64;33.71;101114.19;5090509;28;20149;-72
2022/07/18 04:43:35;;;;;;;7.43;2.10;;;;;;;24.55;33.70;101114.16;5075865;28;20404;-74
2022/07/18 04:46:03;;;;;;;5.57;1.92;;;;;;;24.57;33.93;101111.25;5094436;28;20123;-73
2022/07/18 04:48:34;;;;;;;7.28;2.15;;;;;;;24.80;33.49;101109.69;5075812;28;20447;-73
2022/07/18 04:51:02;;;;;;;4.10;1.83;;;;;;;24.83;33.77;101122.13;5094536;28;20052;-74
2022/07/18 04:53:30;;;;;;;4.32;1.80;;;;;;;25.29;32.62;101126.25;5087779;28;20115;-75
2022/07/18 04:55:58;;;;;;;4.65;1.88;;;;;;;24.41;33.92;101125.66;5073690;28;20049;-75
2022/07/18 04:58:26;;;;;;;6.32;1.70;;;;;;;25.78;31.82;101120.06;5073731;28;20097;-77
2022/07/18 05:00:55;;;;;;;5.60;2.25;;;;;;;26.01;31.55;101114.75;5073817;28;20475;-74
2022/07/18 05:03:24;;;;;;;4.85;1.80;;;;;;;26.45;30.35;101117.97;5055640;28;20133;-75
2022/07/18 05:05:54;;;;;;;6.30;1.80;;;;;;;25.75;31.76;101117.63;5073689;28;20068;-75
2022/07/18 05:08:22;;;;;;;4.43;1.90;;;;;;;26.29;30.67;101121.53;5073195;28;20044;-76
2022/07/18 05:10:50;;;;;;;3.88;1.80;;;;;;;25.63;31.43;101117.94;5088967;28;20047;-74
2022/07/18 05:13:18;;;;;;;5.40;1.73;;;;;;;26.87;29.97;101108.59;5093876;28;20044;-74
2022/07/18 05:15:46;;;;;;;5.25;1.83;;;;;;;25.82;30.90;101115.94;5094125;28;20485;-75
2022/07/18 05:18:15;;;;;;;4.88;2.05;;;;;;;26.15;30.63;101116.75;5093798;28;20538;-75
2022/07/18 05:20:43;;;;;;;4.70;1.63;;;;;;;25.98;30.88;101110.47;5093500;28;20119;-78
2022/07/18 05:23:18;;;;;;;4.82;1.73;;;;;;;27.24;29.03;101110.66;5093568;28;20059;-77
2022/07/18 05:25:47;;;;;;;4.07;1.83;;;;;;;27.41;29.27;101111.38;5075260;28;20044;-78
2022/07/18 05:28:15;;;;;;;4.40;2.00;;;;;;;28.28;27.36;101109.16;5086743;28;20048;-76
2022/07/18 05:30:43;;;;;;;4.80;1.80;;;;;;;27.78;27.80;101116.97;5073280;28;20059;-78
2022/07/18 05:33:11;;;;;;;4.07;1.67;;;;;;;26.89;28.98;101109.25;5073071;28;20040;-78
2022/07/18 05:35:39;;;;;;;4.72;2.00;;;;;;;27.66;28.67;101115.72;5072954;28;20055;-75
2022/07/18 05:38:07;;;;;;;5.10;1.85;;;;;;;27.38;28.70;101124.41;5073130;28;20047;-73
2022/07/18 05:40:37;;;;;;;4.55;1.70;;;;;;;26.81;28.96;101113.72;5072831;28;20552;-72
2022/07/18 05:43:05;;;;;;;4.93;2.00;;;;;;;27.37;28.71;101125.47;5073152;28;20048;-69
2022/07/18 05:45:34;;;;;;;6.35;1.92;;;;;;;27.69;28.56;101119.97;5054772;28;20052;-71
2022/07/18 05:48:02;;;;;;;4.32;1.70;;;;;;;27.24;28.47;101122.47;5090180;28;20058;-71
2022/07/18 05:50:31;;;;;;;9.15;1.92;;;;;;;27.55;28.93;101116.09;5092633;28;20074;-70
2022/07/18 05:52:59;;;;;;;4.80;1.77;;;;;;;27.31;29.12;101115.25;5092638;28;20054;-70
2022/07/18 05:55:27;;;;;;;6.32;1.95;;;;;;;26.93;28.81;101127.03;5074281;28;20511;-70
2022/07/18 05:57:57;;;;;;;5.80;1.73;;;;;;;28.20;28.12;101115.59;5092590;28;20074;-70
2022/07/18 06:00:25;;;;;;;8.43;1.98;;;;;;;28.00;27.54;101114.41;5092677;28;20111;-71
2022/07/18 06:02:54;;;;;;;5.53;1.80;;;;;;;27.35;28.80;101105.63;5074724;28;20070;-70
2022/07/18 06:05:22;;;;;;;7.60;1.80;;;;;;;28.30;27.84;101110.72;5092844;28;20086;-70
2022/07/18 06:07:54;;;;;;;6.32;2.05;;;;;;;28.37;27.32;101106.16;5092107;28;20036;-72
2022/07/18 06:10:24;;;;;;;5.60;1.70;;;;;;;28.15;27.87;101107.91;5092032;28;20044;-72
2022/07/18 06:12:52;;;;;;;6.15;1.98;;;;;;;28.66;27.55;101109.97;5092127;28;20477;-72
2022/07/18 06:15:22;;;;;;;4.10;1.80;;;;;;;28.91;26.78;101103.16;5092690;28;20405;-73
2022/07/18 06:17:50;;;;;;;4.38;1.70;;;;;;;29.53;26.12;101110.91;5093270;28;20374;-73
2022/07/18 06:20:19;;;;;;;4.80;1.80;;;;;;;28.32;26.94;101108.63;5092964;28;20051;-72
2022/07/18 06:22:47;;;;;;;5.40;1.42;;;;;;;28.29;27.09;101103.53;5092643;28;20048;-72
2022/07/18 06:25:15;;;;;;;3.65;1.55;;;;;;;28.83;26.77;101105.97;5092978;28;20097;-70
2022/07/18 06:27:44;;;;;;;5.97;1.80;;;;;;;28.88;26.41;101106.28;5073662;28;20412;-72
2022/07/18 06:30:13;;;;;;;7.13;1.67;;;;;;;29.14;26.92;101099.41;5092876;28;20036;-71
2022/07/18 06:32:42;;;;;;;3.72;1.50;;;;;;;28.71;25.98;101102.88;5067685;28;20068;-70
2022/07/18 06:35:11;;;;;;;4.65;1.60;;;;;;;29.02;25.51;101112.81;5072594;28;20070;-70
2022/07/18 06:37:39;;;;;;;3.67;1.48;;;;;;;28.45;25.76;101107.97;5054264;28;20092;-69
2022/07/18 06:40:08;;;;;;;3.60;1.35;;;;;;;27.46;25.95;101106.22;5054152;28;20052;-71
2022/07/18 06:42:36;;;;;;;7.32;1.48;;;;;;;28.70;24.95;101112.16;5084795;28;20044;-70
2022/07/18 06:45:07;;;;;;;4.00;1.30;;;;;;;29.50;24.41;101110.44;5078125;28;20126;-71
2022/07/18 06:47:43;;;;;;;4.07;1.30;;;;;;;29.18;24.81;101104.34;5078133;28;20474;-70
2022/07/18 06:50:13;;;;;;;5.10;1.45;;;;;;;29.74;23.98;101103.72;5096382;28;20062;-70
2022/07/18 06:52:42;;;;;;;3.63;1.80;;;;;;;29.52;24.58;101098.19;5096204;28;20441;-69
2022/07/18 06:55:12;;;;;;;4.90;1.70;;;;;;;29.54;23.98;101098.88;5096517;28;20070;-69
2022/07/18 06:57:41;;;;;;;4.13;1.40;;;;;;;29.21;24.62;101098.47;5096758;28;20044;-69
2022/07/18 07:00:13;;;;;;;4.20;1.80;;;;;;;28.44;25.20;101093.41;5096400;28;20047;-70
2022/07/18 07:02:44;;;;;;;4.47;1.75;;;;;;;28.91;25.21;101092.19;5096054;28;20040;-69
2022/07/18 07:05:13;;;;;;;4.07;1.30;;;;;;;29.42;24.46;101089.38;5096145;28;20485;-71
2022/07/18 07:07:41;;;;;;;3.63;1.15;;;;;;;28.51;25.02;101082.53;5096097;28;20082;-70
2022/07/18 07:10:15;;;;;;;9.25;1.75;;;;;;;27.12;27.20;101093.78;5096083;28;20070;-70
2022/07/18 07:12:45;;;;;;;2.80;1.33;;;;;;;27.14;26.89;101086.25;5095847;28;20044;-69
2022/07/18 07:15:14;;;;;;;6.35;1.90;;;;;;;27.56;27.50;101073.97;5096084;28;20044;-70
2022/07/18 07:17:44;;;;;;;5.20;1.80;;;;;;;27.74;26.02;101077.28;5095455;28;20075;-69
2022/07/18 07:20:14;;;;;;;4.53;1.70;;;;;;;27.72;26.11;101068.41;5078041;28;20051;-70
2022/07/18 07:22:44;;;;;;;3.72;1.50;;;;;;;27.34;26.24;101076.53;5077608;28;20135;-70
2022/07/18 07:25:12;;;;;;;3.70;1.75;;;;;;;27.27;25.72;101081.00;5095884;28;20400;-70
2022/07/18 07:27:41;;;;;;;2.05;1.10;;;;;;;27.06;26.08;101078.06;5095563;28;20044;-70
2022/07/18 07:30:11;;;;;;;5.30;1.58;;;;;;;26.60;26.93;101077.03;5095837;28;20047;-70
2022/07/18 07:32:42;;;;;;;4.05;1.23;;;;;;;26.48;27.29;101074.69;5095557;28;20051;-70
2022/07/18 07:35:14;;;;;;;6.05;1.60;;;;;;;26.14;27.56;101066.69;5077758;28;20052;-69
2022/07/18 07:37:46;;;;;;;3.50;1.60;;;;;;;26.38;27.79;101063.09;5077254;28;20075;-70
2022/07/18 07:40:16;;;;;;;4.07;1.58;;;;;;;26.47;27.37;101061.19;5095650;28;20056;-70
2022/07/18 07:42:45;;;;;;;4.30;1.60;;;;;;;25.78;27.90;101070.88;5095164;28;20050;-70
2022/07/18 07:45:14;;;;;;;3.35;1.50;;;;;;;26.18;27.89;101068.06;5095437;28;20050;-70
2022/07/18 07:47:43;;;;;;;7.47;1.70;;;;;;;26.36;27.96;101064.28;5095292;28;20036;-70
2022/07/18 07:50:13;;;;;;;7.88;1.60;;;;;;;26.64;27.03;101068.31;5095588;28;20070;-70
2022/07/18 07:52:41;;;;;;;3.35;1.20;;;;;;;26.72;26.75;101065.53;5095254;28;20075;-70
2022/07/18 07:55:09;;;;;;;4.38;1.60;;;;;;;26.80;27.39;101068.22;5095161;28;20067;-70
2022/07/18 07:57:38;;;;;;;3.67;1.40;;;;;;;26.69;27.07;101065.03;5095193;28;20093;-70
2022/07/18 08:00:08;;;;;;;3.40;1.48;;;;;;;26.73;27.39;101071.84;5095556;28;20097;-70
2022/07/18 08:02:36;;;;;;;6.13;1.50;;;;;;;26.78;26.70;101073.03;5095206;28;20062;-70
2022/07/18 08:05:05;;;;;;;4.07;1.50;;;;;;;26.72;26.76;101065.53;5095169;28;20496;-70
2022/07/18 08:07:35;;;;;;;2.97;1.30;;;;;;;25.84;28.13;101059.22;5094850;28;20130;-71
2022/07/18 08:10:04;;;;;;;5.30;1.50;;;;;;;26.30;27.21;101062.25;5076819;28;20044;-70
2022/07/18 08:12:32;;;;;;;2.95;1.33;;;;;;;26.14;27.68;101058.50;5076666;28;20123;-78
2022/07/18 08:15:00;;;;;;;3.78;1.60;;;;;;;25.49;28.38;101068.59;5094770;28;20123;-70
2022/07/18 08:17:30;;;;;;;2.33;1.30;;;;;;;25.64;28.28;101065.00;5076582;28;20131;-69
2022/07/18 08:19:58;;;;;;;2.40;1.40;;;;;;;25.67;28.36;101059.22;5094618;28;20056;-70
2022/07/18 08:22:26;;;;;;;2.53;1.50;;;;;;;25.90;28.27;101064.03;5094652;28;20044;-70
2022/07/18 08:24:56;;;;;;;7.95;1.80;;;;;;;26.10;27.66;101064.50;5094470;28;20051;-70
2022/07/18 08:27:24;;;;;;;6.03;1.40;;;;;;;25.91;27.75;101071.19;5094737;28;20036;-70
2022/07/18 08:29:52;;;;;;;3.13;1.40;;;;;;;26.02;28.04;101068.09;5094045;28;20051;-70
2022/07/18 08:32:35;;;;;;;3.13;1.45;;;;;;;26.09;27.43;101063.66;5094366;28;20132;-72
2022/07/18 08:35:03;;;;;;;2.90;1.42;;;;;;;26.19;27.15;101066.19;5094192;28;20054;-70
2022/07/18 08:37:32;;;;;;;3.55;1.50;;;;;;;26.38;27.04;101064.97;5094624;28;20115;-70
2022/07/18 08:40:01;;;;;;;3.50;1.52;;;;;;;26.07;28.03;101060.25;5076243;28;20109;-70
2022/07/18 08:42:33;;;;;;;4.40;1.60;;;;;;;26.33;27.97;101064.59;5076263;28;20571;-70
2022/07/18 08:45:01;;;;;;;2.88;1.42;;;;;;;26.30;27.59;101063.09;5094255;28;20044;-70
2022/07/18 08:47:31;;;;;;;6.55;1.52;;;;;;;26.24;28.09;101067.34;5075977;28;20056;-70
2022/07/18 08:50:01;;;;;;;2.42;1.45;;;;;;;26.36;27.54;101069.75;5094317;28;20079;-70
2022/07/18 08:52:30;;;;;;;4.63;1.88;;;;;;;26.25;27.96;101063.63;5094207;28;20093;-70
2022/07/18 08:55:20;;;;;;;5.80;1.48;;;;;;;26.23;27.22;101068.41;5094088;28;20080;-70
2022/07/18 08:57:53;;;;;;;2.75;1.40;;;;;;;26.37;27.77;101061.41;5093917;28;20040;-70
2022/07/18 09:00:22;;;;;;;3.70;1.70;;;;;;;26.43;26.96;101065.28;5094192;28;20047;-70
2022/07/18 09:02:58;;;;;;;2.72;1.50;;;;;;;26.41;27.71;101067.34;5075744;28;20048;-69
2022/07/18 09:05:28;;;;;;;3.28;1.40;;;;;;;26.38;27.69;101065.84;5094058;28;20127;-70
2022/07/18 09:08:09;;;;;;;2.80;1.40;;;;;;;26.40;27.60;101065.66;5093394;28;20036;-70
2022/07/18 09:10:49;;;;;;;2.92;1.40;;;;;;;26.02;27.47;101065.38;5093390;28;20097;-69
2022/07/18 09:13:17;;;;;;;5.43;1.73;;;;;;;25.95;27.42;101061.59;5075910;28;20048;-68
2022/07/18 09:16:03;;;;;;;2.55;1.20;;;;;;;25.77;27.93;101071.88;5093401;28;20082;-68
2022/07/18 09:18:34;;;;;;;5.45;1.73;;;;;;;25.64;27.36;101065.00;5093581;28;20044;-70
2022/07/18 09:21:07;;;;;;;5.45;1.75;;;;;;;25.64;27.91;101070.47;5092621;28;20052;-69
2022/07/18 09:23:37;;;;;;;2.35;1.40;;;;;;;25.96;27.88;101064.19;5093878;28;20040;-69
2022/07/18 09:26:08;;;;;;;5.05;1.80;;;;;;;25.97;28.04;101065.03;5093650;28;20044;-70
2022/07/18 09:28:47;;;;;;;2.47;1.35;;;;;;;25.98;27.08;101061.28;5093522;28;20048;-70
2022/07/18 09:31:36;;;;;;;2.60;1.23;;;;;;;25.83;26.81;101063.00;5093668;28;20161;-69
2022/07/18 09:34:06;;;;;;;3.50;1.27;;;;;;;25.85;27.43;101071.88;5093543;28;20072;-70
2022/07/18 09:36:36;;;;;;;3.53;1.30;;;;;;;25.62;27.65;101061.59;5093386;28;20051;-69
2022/07/18 09:39:19;;;;;;;4.82;1.48;;;;;;;25.65;27.96;101069.44;5075670;28;20048;-70
2022/07/18 09:41:49;;;;;;;;;;;;;;;25.97;27.72;101062.31;5093941;28;20393;-70
2022/07/18 09:44:18;;;;;;;1.95;1.25;;;;;;;26.11;27.55;101056.13;5093388;28;19973;-70
2022/07/18 09:47:00;;;;;;;5.38;1.55;;;;;;;25.98;27.86;101058.53;5075103;28;20473;-70
2022/07/18 09:49:31;;;;;;;5.70;1.92;;;;;;;26.19;28.01;101047.06;5093289;28;20482;-70
2022/07/18 09:52:07;;;;;;;4.32;1.70;;;;;;;26.40;26.72;101054.72;5074706;28;20110;-70
2022/07/18 09:54:37;;;;;;;4.20;1.77;;;;;;;26.50;26.51;101049.91;5093270;28;20036;-70
2022/07/18 09:57:07;;;;;;;3.58;1.50;;;;;;;26.55;27.35;101039.28;5093809;28;20147;-69
2022/07/18 09:59:36;;;;;;;5.15;1.63;;;;;;;26.80;26.42;101035.38;5075006;28;20044;-69
2022/07/18 10:02:04;;;;;;;3.65;1.38;;;;;;;27.01;26.41;101042.13;5074931;28;20143;-69
2022/07/18 10:04:33;;;;;;;3.92;1.63;;;;;;;26.92;26.23;101048.66;5093249;28;20040;-69
2022/07/18 10:07:03;;;;;;;4.75;1.50;;;;;;;26.71;26.53;101041.94;5092857;28;20048;-69
2022/07/18 10:09:31;;;;;;;3.80;1.50;;;;;;;26.50;26.77;101034.34;5092886;28;20117;-69
2022/07/18 10:12:01;;;;;;;3.00;1.35;;;;;;;26.23;25.96;101040.19;5092477;28;20143;-69
2022/07/18 10:14:32;;;;;;;3.00;1.30;;;;;;;26.33;25.99;101043.59;5093192;28;20040;-68
2022/07/18 10:17:01;;;;;;;4.18;1.45;;;;;;;26.16;26.26;101034.59;5074624;28;20048;-69
2022/07/18 10:19:29;;;;;;;2.70;1.23;;;;;;;26.25;26.10;101033.53;5077482;28;20055;-69
2022/07/18 10:21:58;;;;;;;2.58;1.25;;;;;;;26.23;26.15;101038.31;5078689;28;20048;-69
2022/07/18 10:24:27;;;;;;;2.65;1.15;;;;;;;26.34;25.21;101028.03;5097115;28;20072;-69
2022/07/18 10:27:21;;;;;;;2.40;1.10;;;;;;;26.28;25.06;101023.28;5096768;28;20039;-69
2022/07/18 10:30:09;;;;;;;;;;;;;;;26.08;25.87;101020.94;5060202;28;20074;-69
2022/07/18 10:32:37;;;;;;;2.78;1.35;;;;;;;26.12;25.28;101019.56;5096931;28;19927;-68
2022/07/18 10:35:07;;;;;;;4.40;1.30;;;;;;;26.26;25.56;101015.25;5096742;28;20447;-69
2022/07/18 10:37:36;;;;;;;4.45;1.60;;;;;;;26.59;25.18;101016.00;5078315;28;20098;-70
2022/07/18 10:40:27;;;;;;;5.50;1.90;;;;;;;26.70;24.95;101007.38;5097203;28;20075;-69
2022/07/18 10:43:33;;;;;;;7.13;1.80;;;;;;;26.91;25.00;101011.38;5096624;28;20093;-68
2022/07/18 10:46:04;;;;;;;3.83;1.40;;;;;;;27.09;24.35;101010.09;5096256;28;20440;-69
2022/07/18 10:48:54;;;;;;;3.20;1.25;;;;;;;26.99;24.36;101001.22;5078510;28;20047;-69
2022/07/18 10:51:30;;;;;;;4.28;1.40;;;;;;;26.92;25.36;101002.97;5078393;28;20056;-69
2022/07/18 10:54:06;;;;;;;3.17;1.40;;;;;;;26.88;24.86;101003.53;5096193;28;20521;-68
2022/07/18 10:57:09;;;;;;;3.55;1.35;;;;;;;26.99;23.30;100994.91;5096565;28;20473;-69
2022/07/18 10:59:59;;;;;;;2.08;1.23;;;;;;;27.14;22.57;100997.75;5078160;28;20489;-68
2022/07/18 11:02:38;;;;;;;3.17;1.30;;;;;;;26.95;22.66;100985.38;5096030;28;20048;-69
2022/07/18 11:05:34;;;;;;;3.47;1.52;;;;;;;27.13;23.24;100985.13;5095943;28;20040;-69
2022/07/18 11:08:20;;;;;;;2.65;1.20;;;;;;;27.24;23.10;100971.00;5096343;28;20058;-69
2022/07/18 11:11:12;;;;;;;3.90;1.55;;;;;;;27.32;22.01;100971.78;5077831;28;20056;-70
2022/07/18 11:13:48;;;;;;;1.90;1.17;;;;;;;27.15;23.18;100970.19;5096397;28;20123;-69
2022/07/18 11:16:21;;;;;;;4.28;1.50;;;;;;;27.10;23.13;100962.50;5096319;28;20041;-69
2022/07/18 11:19:20;;;;;;;2.90;1.35;;;;;;;27.14;22.93;100963.03;5095348;28;20048;-69
2022/07/18 11:21:57;;;;;;;2.75;1.20;;;;;;;27.07;23.64;100956.56;5076308;28;20063;-69
2022/07/18 11:24:27;;;;;;;4.47;1.42;;;;;;;26.96;22.90;100952.34;5094958;28;20040;-69
2022/07/18 11:26:55;;;;;;;2.83;1.42;;;;;;;27.14;22.75;100959.44;5094457;28;20085;-69
2022/07/18 11:29:24;;;;;;;4.38;1.40;;;;;;;27.18;22.99;100956.13;5094133;28;20039;-69
2022/07/18 11:31:53;;;;;;;3.20;1.48;;;;;;;27.31;23.12;100944.53;5075943;28;20156;-69
2022/07/18 11:34:25;;;;;;;2.78;1.40;;;;;;;27.49;23.35;100949.69;5094520;28;20048;-69
2022/07/18 11:37:09;;;;;;;3.00;1.05;;;;;;;27.07;22.96;100943.72;5094566;28;20533;-69
2022/07/18 11:39:38;;;;;;;2.72;1.38;;;;;;;26.99;23.21;100945.63;5076562;28;20044;-69
2022/07/18 11:42:06;;;;;;;2.75;1.23;;;;;;;27.07;23.05;100937.41;5093969;28;20046;-69
2022/07/18 11:44:34;;;;;;;1.90;1.17;;;;;;;27.13;23.00;100942.16;5094258;28;20044;-69